createdAt,value
2022-11-16T00:00:14.622Z,5.10
2022-11-16T00:02:43.900Z,4.70
2022-11-16T00:05:12.441Z,4.40
2022-11-16T00:07:42.395Z,4.13
2022-11-16T00:10:12.429Z,5.63
2022-11-16T00:12:42.183Z,5.97
2022-11-16T00:15:10.308Z,5.30
2022-11-16T00:17:38.448Z,5.20
2022-11-16T00:20:07.548Z,5.27
2022-11-16T00:22:35.191Z,5.33
2022-11-16T00:25:03.425Z,5.80
2022-11-16T00:27:30.990Z,5.47
2022-11-16T00:29:58.667Z,6.10
2022-11-16T00:32:26.260Z,6.70
2022-11-16T00:34:53.895Z,6.70
2022-11-16T00:37:21.976Z,6.03
2022-11-16T00:39:49.693Z,5.77
2022-11-16T00:42:17.318Z,5.77
2022-11-16T00:44:44.928Z,5.50
2022-11-16T00:47:12.630Z,6.10
2022-11-16T00:49:40.493Z,5.50
2022-11-16T00:52:08.236Z,5.17
2022-11-16T00:54:35.973Z,6.00
2022-11-16T00:57:03.697Z,6.33
2022-11-16T00:59:33.033Z,7.00
2022-11-16T01:02:00.830Z,6.40
2022-11-16T01:04:29.752Z,7.03
2022-11-16T01:07:00.614Z,5.73
2022-11-16T01:09:29.986Z,6.20
2022-11-16T01:12:11.416Z,5.40
2022-11-16T01:14:48.994Z,6.43
2022-11-16T01:17:19.626Z,6.00
2022-11-16T01:19:48.837Z,5.83
2022-11-16T01:22:18.644Z,6.30
2022-11-16T01:24:49.155Z,5.60
2022-11-16T01:27:20.255Z,5.57
2022-11-16T01:29:49.233Z,5.53
2022-11-16T01:32:19.544Z,5.53
2022-11-16T01:34:47.663Z,5.77
2022-11-16T01:37:27.996Z,5.73
2022-11-16T01:39:56.416Z,5.00
2022-11-16T01:42:30.292Z,6.30
2022-11-16T01:45:30.405Z,5.50
2022-11-16T01:48:00.030Z,5.63
2022-11-16T01:50:32.210Z,6.07
2022-11-16T01:53:07.589Z,5.80
2022-11-16T01:55:48.590Z,6.23
2022-11-16T01:58:34.077Z,5.50
2022-11-16T02:01:12.828Z,5.53
2022-11-16T02:03:47.175Z,5.80
2022-11-16T02:06:26.844Z,7.00
2022-11-16T02:10:07.250Z,6.20
2022-11-16T02:13:23.590Z,8.03
2022-11-16T02:16:30.437Z,7.73
2022-11-16T02:20:27.848Z,6.33
2022-11-16T02:23:42.555Z,6.47
2022-11-16T02:27:29.319Z,7.07
2022-11-16T02:30:00.032Z,6.33
2022-11-16T02:33:04.119Z,6.50
2022-11-16T02:35:48.253Z,6.17
2022-11-16T02:38:28.598Z,5.63
2022-11-16T02:41:26.754Z,5.80
2022-11-16T02:44:14.267Z,5.60
2022-11-16T02:46:53.629Z,6.63
2022-11-16T02:49:26.571Z,5.80
2022-11-16T02:51:56.465Z,6.00
2022-11-16T02:54:25.111Z,5.60
2022-11-16T02:57:40.763Z,5.40
2022-11-16T03:00:23.867Z,5.43
2022-11-16T03:03:23.467Z,5.57
2022-11-16T03:06:19.700Z,6.10
2022-11-16T03:09:14.476Z,6.07
2022-11-16T03:12:02.984Z,6.23
2022-11-16T03:14:55.567Z,6.20
2022-11-16T03:17:49.312Z,5.13
2022-11-16T03:20:31.973Z,6.10
2022-11-16T03:23:12.888Z,5.80
2022-11-16T03:25:55.087Z,5.80
2022-11-16T03:28:36.862Z,5.87
2022-11-16T03:31:29.020Z,5.47
2022-11-16T03:34:16.358Z,4.90
2022-11-16T03:36:50.362Z,6.00
2022-11-16T03:39:37.326Z,5.80
2022-11-16T03:42:15.506Z,5.33
2022-11-16T03:44:48.722Z,5.53
2022-11-16T03:47:16.714Z,6.73
2022-11-16T03:49:48.330Z,5.03
2022-11-16T03:52:19.992Z,5.00
2022-11-16T03:54:49.636Z,5.10
2022-11-16T03:57:18.795Z,4.33
2022-11-16T03:59:52.333Z,5.30
2022-11-16T04:02:20.022Z,4.90
2022-11-16T04:05:08.396Z,5.13
2022-11-16T04:07:54.556Z,4.47
2022-11-16T04:10:40.919Z,4.43
2022-11-16T04:13:33.709Z,4.80
2022-11-16T04:16:19.854Z,4.50
2022-11-16T04:19:06.466Z,4.87
2022-11-16T04:22:04.164Z,4.20
2022-11-16T04:24:44.544Z,4.07
2022-11-16T04:27:35.063Z,4.20
2022-11-16T04:30:06.199Z,4.40
2022-11-16T04:32:54.332Z,4.00
2022-11-16T04:35:40.492Z,4.27
2022-11-16T04:38:10.480Z,3.67
2022-11-16T04:40:38.746Z,3.83
2022-11-16T04:43:07.469Z,4.30
2022-11-16T04:45:57.464Z,4.40
2022-11-16T04:48:30.305Z,3.47
2022-11-16T04:51:00.235Z,3.80
2022-11-16T04:53:29.079Z,3.30
2022-11-16T04:56:05.483Z,2.80
2022-11-16T04:58:35.135Z,3.30
2022-11-16T05:01:03.498Z,2.53
2022-11-16T05:03:31.609Z,2.63
2022-11-16T05:05:59.364Z,2.40
2022-11-16T05:08:27.527Z,3.30
2022-11-16T05:10:56.291Z,3.00
2022-11-16T05:13:23.828Z,3.03
2022-11-16T05:15:53.120Z,2.63
2022-11-16T05:18:20.772Z,3.00
2022-11-16T05:21:00.698Z,3.73
2022-11-16T05:23:49.789Z,3.60
2022-11-16T05:26:20.913Z,3.70
2022-11-16T05:28:49.084Z,3.70
2022-11-16T05:31:16.738Z,3.70
2022-11-16T05:33:44.621Z,4.53
2022-11-16T05:36:13.390Z,4.20
2022-11-16T05:38:41.429Z,5.00
2022-11-16T05:41:09.124Z,4.30
2022-11-16T05:43:37.174Z,4.07
2022-11-16T05:46:14.312Z,4.70
2022-11-16T05:48:42.604Z,4.30
2022-11-16T05:51:14.858Z,4.10
2022-11-16T05:53:51.291Z,4.50
2022-11-16T05:56:41.495Z,4.77
2022-11-16T05:59:19.087Z,5.10
2022-11-16T06:01:51.285Z,4.60
2022-11-16T06:04:24.839Z,4.30
2022-11-16T06:06:55.392Z,4.80
2022-11-16T06:09:29.212Z,5.30
2022-11-16T06:12:01.341Z,5.87
2022-11-16T06:14:28.983Z,6.80
2022-11-16T06:16:56.851Z,6.60
2022-11-16T06:19:29.587Z,7.37
2022-11-16T06:21:59.963Z,5.93
2022-11-16T06:24:30.042Z,6.63
2022-11-16T06:26:59.029Z,6.50
2022-11-16T06:29:26.716Z,7.10
2022-11-16T06:31:54.820Z,6.90
2022-11-16T06:34:23.051Z,6.30
2022-11-16T06:36:50.688Z,6.60
2022-11-16T06:39:18.840Z,5.60
2022-11-16T06:41:47.618Z,5.70
2022-11-16T06:44:15.341Z,7.57
2022-11-16T06:46:52.940Z,7.30
2022-11-16T06:49:20.711Z,6.67
2022-11-16T06:51:49.583Z,6.20
2022-11-16T06:54:17.347Z,6.80
2022-11-16T06:56:45.327Z,6.43
2022-11-16T06:59:12.975Z,6.60
2022-11-16T07:01:40.786Z,7.50
2022-11-16T07:04:12.912Z,7.20
2022-11-16T07:06:44.729Z,6.33
2022-11-16T07:09:15.921Z,6.50
2022-11-16T07:11:44.311Z,6.60
2022-11-16T07:14:12.370Z,7.67
2022-11-16T07:16:40.142Z,8.13
2022-11-16T07:19:07.835Z,7.07
2022-11-16T07:21:39.087Z,7.33
2022-11-16T07:24:11.530Z,6.87
2022-11-16T07:26:39.202Z,7.23
2022-11-16T07:29:11.753Z,7.20
2022-11-16T07:31:44.298Z,7.80
2022-11-16T07:34:47.052Z,6.87
2022-11-16T07:37:17.112Z,7.40
2022-11-16T07:39:45.913Z,6.23
2022-11-16T07:42:14.266Z,6.93
2022-11-16T07:45:01.288Z,7.13
2022-11-16T07:47:29.409Z,6.73
2022-11-16T07:49:57.046Z,5.90
2022-11-16T07:52:27.993Z,6.53
2022-11-16T07:54:58.141Z,6.90
2022-11-16T07:57:28.486Z,7.30
2022-11-16T07:59:59.143Z,6.93
2022-11-16T08:02:28.687Z,6.80
2022-11-16T08:04:57.450Z,6.30
2022-11-16T08:07:28.164Z,5.30
2022-11-16T08:09:57.360Z,6.40
2022-11-16T08:12:25.220Z,5.20
2022-11-16T08:14:53.820Z,5.30
2022-11-16T08:17:22.551Z,4.90
2022-11-16T08:19:50.620Z,4.43
2022-11-16T08:22:31.703Z,4.67
2022-11-16T08:25:02.895Z,4.27
2022-11-16T08:27:33.403Z,5.17
2022-11-16T08:30:04.936Z,3.63
2022-11-16T08:32:33.080Z,4.40
2022-11-16T08:35:01.252Z,4.73
2022-11-16T08:37:28.971Z,3.73
2022-11-16T08:39:56.829Z,3.37
2022-11-16T08:42:24.960Z,2.80
2022-11-16T08:44:52.487Z,3.50
2022-11-16T08:47:21.567Z,3.10
2022-11-16T08:49:54.910Z,2.97
2022-11-16T08:52:24.798Z,2.30
2022-11-16T08:54:54.109Z,2.43
2022-11-16T08:57:22.046Z,2.00
2022-11-16T08:59:54.818Z,2.80
2022-11-16T09:02:25.664Z,2.60
2022-11-16T09:04:54.356Z,2.70
2022-11-16T09:07:22.954Z,2.60
2022-11-16T09:09:50.814Z,2.80
2022-11-16T09:12:18.444Z,2.00
2022-11-16T09:14:46.192Z,2.67
2022-11-16T09:17:17.604Z,2.23
2022-11-16T09:19:47.849Z,2.53
2022-11-16T09:22:15.391Z,2.63
2022-11-16T09:24:43.695Z,2.97
2022-11-16T09:27:11.538Z,2.97
2022-11-16T09:29:39.418Z,2.63
2022-11-16T09:32:07.883Z,2.63
2022-11-16T09:34:36.433Z,2.53
2022-11-16T09:37:04.142Z,2.80
2022-11-16T09:39:32.651Z,2.60
2022-11-16T09:43:01.518Z,2.33
2022-11-16T09:46:02.077Z,2.30
2022-11-16T09:48:35.831Z,3.07
2022-11-16T09:51:12.713Z,2.30
2022-11-16T09:53:58.601Z,2.93
2022-11-16T09:56:35.360Z,2.00
2022-11-16T09:59:13.509Z,1.90
2022-11-16T10:02:32.503Z,2.10
2022-11-16T10:05:32.852Z,2.03
2022-11-16T10:08:45.978Z,2.30
2022-11-16T10:12:11.069Z,2.77
2022-11-16T10:15:26.600Z,2.83
2022-11-16T10:18:44.577Z,2.03
2022-11-16T10:22:01.524Z,2.23
2022-11-16T10:25:07.449Z,1.90
2022-11-16T10:28:45.493Z,2.00
2022-11-16T10:31:53.750Z,2.23
2022-11-16T10:34:31.792Z,2.43
2022-11-16T10:37:08.548Z,2.80
2022-11-16T10:39:41.045Z,1.70
2022-11-16T10:42:23.101Z,1.90
2022-11-16T10:45:29.776Z,3.20
2022-11-16T10:48:42.625Z,2.03
2022-11-16T10:51:11.864Z,2.60
2022-11-16T10:53:44.357Z,2.30
2022-11-16T10:56:41.539Z,2.20
2022-11-16T10:59:15.144Z,2.70
2022-11-16T11:01:57.601Z,2.13
2022-11-16T11:04:32.698Z,1.50
2022-11-16T11:07:30.015Z,1.97
2022-11-16T11:09:57.737Z,2.23
2022-11-16T11:12:54.228Z,1.60
2022-11-16T11:15:27.224Z,1.50
2022-11-16T11:18:16.109Z,1.63
2022-11-16T11:21:06.637Z,1.90
2022-11-16T11:24:10.580Z,1.40
2022-11-16T11:26:57.516Z,1.60
2022-11-16T11:29:38.084Z,1.37
2022-11-16T11:32:22.436Z,1.57
2022-11-16T11:34:56.472Z,2.03
2022-11-16T11:37:37.080Z,1.50
2022-11-16T11:40:45.434Z,2.27
2022-11-16T11:43:25.361Z,1.53
2022-11-16T11:46:06.281Z,1.97
2022-11-16T11:49:19.117Z,1.63
2022-11-16T11:51:49.823Z,2.10
2022-11-16T11:54:49.344Z,2.40
2022-11-16T11:57:23.992Z,1.73
2022-11-16T11:59:55.377Z,1.43
2022-11-16T12:03:50.742Z,2.03
2022-11-16T12:06:32.790Z,1.57
2022-11-16T12:10:25.682Z,1.43
2022-11-16T12:13:20.744Z,1.63
2022-11-16T12:16:50.043Z,1.60
2022-11-16T12:20:16.256Z,2.03
2022-11-16T12:23:56.324Z,1.97
2022-11-16T12:27:35.540Z,1.60
2022-11-16T12:30:59.471Z,1.23
2022-11-16T12:33:49.493Z,1.50
2022-11-16T12:37:05.709Z,2.03
2022-11-16T12:40:25.183Z,2.20
2022-11-16T12:43:28.978Z,1.87
2022-11-16T12:46:37.311Z,1.60
2022-11-16T12:49:53.708Z,2.10
2022-11-16T12:53:55.728Z,1.40
2022-11-16T12:57:28.990Z,1.83
2022-11-16T13:00:18.773Z,1.33
2022-11-16T13:03:11.492Z,1.77
2022-11-16T13:06:02.240Z,1.70
2022-11-16T13:08:52.304Z,2.00
2022-11-16T13:11:31.936Z,1.70
2022-11-16T13:14:15.587Z,1.80
2022-11-16T13:16:45.706Z,1.80
2022-11-16T13:19:18.157Z,1.37
2022-11-16T13:22:13.860Z,1.43
2022-11-16T13:25:44.170Z,1.40
2022-11-16T13:28:36.779Z,2.43
2022-11-16T13:31:24.004Z,2.00
2022-11-16T13:34:07.658Z,1.60
2022-11-16T13:36:45.114Z,1.90
2022-11-16T13:39:22.862Z,1.23
2022-11-16T13:42:12.479Z,1.70
2022-11-16T13:44:40.505Z,1.87
2022-11-16T13:47:30.557Z,1.57
2022-11-16T13:50:05.842Z,1.60
2022-11-16T13:53:46.151Z,2.17
2022-11-16T13:55:46.568Z,1.73
2022-11-16T13:58:23.630Z,1.53
2022-11-16T14:01:15.827Z,1.47
2022-11-16T14:03:52.032Z,1.63
2022-11-16T14:06:25.504Z,2.00
2022-11-16T14:08:59.458Z,1.83
2022-11-16T14:11:40.645Z,1.30
2022-11-16T14:15:04.571Z,1.30
2022-11-16T14:18:09.608Z,1.50
2022-11-16T14:21:20.589Z,1.63
2022-11-16T14:24:41.816Z,2.00
2022-11-16T14:28:25.527Z,1.90
2022-11-16T14:31:30.758Z,2.50
2022-11-16T14:34:01.222Z,2.07
2022-11-16T14:36:44.431Z,1.70
2022-11-16T14:39:37.552Z,1.70
2022-11-16T14:43:01.857Z,1.30
2022-11-16T14:45:38.347Z,1.23
2022-11-16T14:48:25.873Z,1.27
2022-11-16T14:51:37.046Z,1.50
2022-11-16T14:54:46.688Z,1.87
2022-11-16T14:57:24.368Z,1.10
2022-11-16T15:00:25.893Z,1.43
2022-11-16T15:03:02.369Z,2.20
2022-11-16T15:05:37.413Z,1.30
2022-11-16T15:08:23.795Z,1.87
2022-11-16T15:10:52.759Z,4.50
2022-11-16T15:13:25.385Z,2.67
2022-11-16T15:16:20.041Z,1.67
2022-11-16T15:19:02.781Z,1.77
2022-11-16T15:21:30.710Z,1.57
2022-11-16T15:26:46.059Z,3.87
2022-11-16T15:29:24.526Z,3.00
2022-11-16T15:31:53.035Z,2.10
2022-11-16T15:34:21.049Z,4.00
2022-11-16T15:36:49.008Z,4.00
2022-11-16T15:39:33.500Z,4.20
2022-11-16T15:42:03.969Z,3.67
2022-11-16T15:44:33.954Z,4.10
2022-11-16T15:47:04.291Z,3.53
2022-11-16T15:49:41.443Z,3.70
2022-11-16T15:52:10.215Z,3.23
2022-11-16T15:54:56.437Z,3.73
2022-11-16T15:57:25.303Z,2.70
2022-11-16T15:59:57.428Z,2.30
2022-11-16T16:02:31.083Z,2.53
2022-11-16T16:04:59.473Z,2.17
2022-11-16T16:07:47.102Z,2.10
2022-11-16T16:10:26.133Z,1.97
2022-11-16T16:12:59.866Z,2.17
2022-11-16T16:15:36.792Z,2.00
2022-11-16T16:18:38.777Z,2.50
2022-11-16T16:21:06.926Z,1.90
2022-11-16T16:23:48.857Z,3.20
2022-11-16T16:26:18.269Z,3.77
2022-11-16T16:28:46.759Z,3.47
2022-11-16T16:31:17.091Z,2.83
2022-11-16T16:33:45.071Z,2.23
2022-11-16T16:36:13.791Z,2.43
2022-11-16T16:38:41.722Z,2.60
2022-11-16T16:41:24.246Z,3.10
2022-11-16T16:43:52.840Z,2.37
2022-11-16T16:46:21.848Z,2.60
2022-11-16T16:48:49.586Z,2.27
2022-11-16T16:51:17.246Z,3.33
2022-11-16T16:53:44.890Z,2.63
2022-11-16T16:56:20.758Z,2.33
2022-11-16T16:58:48.582Z,2.30
2022-11-16T17:01:16.420Z,2.43
2022-11-16T17:03:44.242Z,2.53
2022-11-16T17:06:11.936Z,2.40
2022-11-16T17:08:39.717Z,2.47
2022-11-16T17:11:07.420Z,2.47
2022-11-16T17:13:35.403Z,2.33
2022-11-16T17:16:06.352Z,3.30
2022-11-16T17:18:34.143Z,3.60
2022-11-16T17:21:09.945Z,3.53
2022-11-16T17:23:38.094Z,3.80
2022-11-16T17:26:09.778Z,3.83
2022-11-16T17:28:37.571Z,3.90
2022-11-16T17:31:11.473Z,3.53
2022-11-16T17:33:42.849Z,3.20
2022-11-16T17:36:14.618Z,2.53
2022-11-16T17:38:42.530Z,3.53
2022-11-16T17:41:18.359Z,3.40
2022-11-16T17:43:47.588Z,3.60
2022-11-16T17:46:19.927Z,3.73
2022-11-16T17:48:49.250Z,2.90
2022-11-16T17:51:23.858Z,4.20
2022-11-16T17:53:53.069Z,4.40
2022-11-16T17:56:27.273Z,3.07
2022-11-16T17:58:58.562Z,3.73
2022-11-16T18:01:27.969Z,5.00
2022-11-16T18:03:56.070Z,4.50
2022-11-16T18:06:26.323Z,4.03
2022-11-16T18:08:54.883Z,4.00
2022-11-16T18:11:27.586Z,3.93
2022-11-16T18:14:02.092Z,5.40
2022-11-16T18:16:33.311Z,5.37
2022-11-16T18:19:07.072Z,6.60
2022-11-16T18:21:42.575Z,6.93
2022-11-16T18:24:11.862Z,9.03
2022-11-16T18:26:41.355Z,17.67
2022-11-16T18:29:16.072Z,17.00
2022-11-16T18:31:44.083Z,8.57
2022-11-16T18:34:15.753Z,11.43
2022-11-16T18:36:43.502Z,9.37
2022-11-16T18:39:11.145Z,10.00
2022-11-16T18:41:53.275Z,9.33
2022-11-16T18:44:22.761Z,4.63
2022-11-16T18:46:50.604Z,4.40
2022-11-16T18:49:18.299Z,4.90
2022-11-16T18:51:45.956Z,5.03
2022-11-16T18:54:13.595Z,6.50
2022-11-16T18:56:41.235Z,9.03
2022-11-16T18:59:08.835Z,6.40
2022-11-16T19:01:36.439Z,6.17
2022-11-16T19:04:04.427Z,4.47
2022-11-16T19:06:33.073Z,5.03
2022-11-16T19:09:00.687Z,6.07
2022-11-16T19:11:29.160Z,5.70
2022-11-16T19:14:01.103Z,5.10
2022-11-16T19:16:29.449Z,5.07
2022-11-16T19:18:57.558Z,4.50
2022-11-16T19:21:25.914Z,4.77
2022-11-16T19:23:57.660Z,5.40
2022-11-16T19:26:28.237Z,6.13
2022-11-16T19:28:56.217Z,5.20
2022-11-16T19:31:31.504Z,5.30
2022-11-16T19:34:10.712Z,3.77
2022-11-16T19:36:39.410Z,4.13
2022-11-16T19:39:07.178Z,4.57
2022-11-16T19:41:35.553Z,5.73
2022-11-16T19:44:03.238Z,7.20
2022-11-16T19:46:35.962Z,5.33
2022-11-16T19:49:03.777Z,5.13
2022-11-16T19:51:33.960Z,5.33
2022-11-16T19:54:03.493Z,4.37
2022-11-16T19:56:31.757Z,5.63
2022-11-16T19:58:59.462Z,4.60
2022-11-16T20:01:29.564Z,4.60
2022-11-16T20:04:03.551Z,6.03
2022-11-16T20:06:36.585Z,5.07
2022-11-16T20:09:12.220Z,3.80
2022-11-16T20:11:42.334Z,4.57
2022-11-16T20:14:12.471Z,4.17
2022-11-16T20:16:46.627Z,5.83
2022-11-16T20:19:15.007Z,5.00
2022-11-16T20:21:44.630Z,3.87
2022-11-16T20:24:16.820Z,4.60
2022-11-16T20:26:49.219Z,3.97
2022-11-16T20:29:19.532Z,5.30
2022-11-16T20:31:47.609Z,4.57
2022-11-16T20:34:17.817Z,4.10
2022-11-16T20:36:50.935Z,5.70
2022-11-16T20:39:21.235Z,5.47
2022-11-16T20:41:49.326Z,4.23
2022-11-16T20:44:22.183Z,5.20
2022-11-16T20:46:52.766Z,4.77
2022-11-16T20:49:20.632Z,6.10
2022-11-16T20:51:49.648Z,4.00
2022-11-16T20:54:17.344Z,3.90
2022-11-16T20:56:44.994Z,4.37
2022-11-16T20:59:12.640Z,4.03
2022-11-16T21:01:41.583Z,3.30
2022-11-16T21:04:10.973Z,3.90
2022-11-16T21:06:38.691Z,4.07
2022-11-16T21:09:07.134Z,3.77
2022-11-16T21:11:56.099Z,4.10
2022-11-16T21:14:24.172Z,4.47
2022-11-16T21:16:51.771Z,3.30
2022-11-16T21:19:19.744Z,4.80
2022-11-16T21:21:47.315Z,3.13
2022-11-16T21:24:15.138Z,3.00
2022-11-16T21:26:42.786Z,3.30
2022-11-16T21:29:10.477Z,3.00
2022-11-16T21:31:38.140Z,6.10
2022-11-16T21:34:07.417Z,3.10
2022-11-16T21:36:36.302Z,3.97
2022-11-16T21:39:04.238Z,1.80
2022-11-16T21:41:31.988Z,1.93
2022-11-16T21:43:59.556Z,3.03
2022-11-16T21:46:30.034Z,3.00
2022-11-16T21:48:58.994Z,2.70
2022-11-16T21:51:27.869Z,3.50
2022-11-16T21:53:56.927Z,2.00
2022-11-16T21:56:26.626Z,2.77
2022-11-16T21:58:56.298Z,2.67
2022-11-16T22:01:25.675Z,3.03
2022-11-16T22:04:11.656Z,2.67
2022-11-16T22:06:58.041Z,2.87
2022-11-16T22:09:25.677Z,3.20
2022-11-16T22:11:53.293Z,3.10
2022-11-16T22:14:20.961Z,2.97
2022-11-16T22:16:49.303Z,3.10
2022-11-16T22:19:17.148Z,2.67
2022-11-16T22:21:44.825Z,2.27
2022-11-16T22:24:20.295Z,2.80
2022-11-16T22:26:49.668Z,3.30
2022-11-16T22:29:17.315Z,2.30
2022-11-16T22:31:44.974Z,2.87
2022-11-16T22:34:12.588Z,3.10
2022-11-16T22:36:40.309Z,2.63
2022-11-16T22:39:07.976Z,2.40
2022-11-16T22:41:35.603Z,2.37
2022-11-16T22:44:03.340Z,3.17
2022-11-16T22:46:32.147Z,2.40
2022-11-16T22:48:59.932Z,2.50
2022-11-16T22:51:30.671Z,2.60
2022-11-16T22:54:05.562Z,2.40
2022-11-16T22:56:36.616Z,2.27
2022-11-16T22:59:05.855Z,3.53
2022-11-16T23:01:33.740Z,2.57
2022-11-16T23:04:01.620Z,2.77
2022-11-16T23:06:29.618Z,2.80
2022-11-16T23:08:57.313Z,2.73
2022-11-16T23:11:46.287Z,2.60
2022-11-16T23:14:36.365Z,3.00
2022-11-16T23:17:06.393Z,3.00
2022-11-16T23:19:55.031Z,2.10
2022-11-16T23:22:41.505Z,2.43
2022-11-16T23:25:30.924Z,2.50
2022-11-16T23:28:22.668Z,3.90
2022-11-16T23:30:50.338Z,2.50
2022-11-16T23:33:38.469Z,2.57
2022-11-16T23:36:07.047Z,2.70
2022-11-16T23:38:35.050Z,3.90
2022-11-16T23:41:22.960Z,2.50
2022-11-16T23:43:57.870Z,3.07
2022-11-16T23:46:32.279Z,2.73
2022-11-16T23:49:00.976Z,1.93
2022-11-16T23:51:28.866Z,2.53
2022-11-16T23:53:56.864Z,2.23
2022-11-16T23:56:24.984Z,2.13
2022-11-16T23:58:57.522Z,2.20
